createdAt,value
2022-10-11T00:16:32.578Z,11
2022-10-11T00:45:33.078Z,11
2022-10-11T01:14:19.959Z,12
2022-10-11T01:43:09.659Z,9
2022-10-11T02:11:59.221Z,9
2022-10-11T02:40:53.956Z,13
2022-10-11T03:09:48.289Z,14
2022-10-11T03:38:25.790Z,14
2022-10-11T04:07:12.293Z,15
2022-10-11T04:36:07.316Z,15
2022-10-11T05:04:37.545Z,23
2022-10-11T05:33:14.269Z,25
2022-10-11T06:01:46.689Z,21
2022-10-11T06:30:18.524Z,27
2022-10-11T06:58:54.458Z,33
2022-10-11T07:27:28.589Z,39
2022-10-11T07:56:03.883Z,43
2022-10-11T08:24:39.956Z,42
2022-10-11T08:53:36.525Z,37
2022-10-11T09:22:19.650Z,36
2022-10-11T09:50:52.263Z,14
2022-10-11T10:19:31.157Z,14
2022-10-11T10:48:10.414Z,15
2022-10-11T11:17:03.831Z,14
2022-10-11T11:45:49.962Z,14
2022-10-11T12:13:58.983Z,12
2022-10-11T12:42:37.284Z,14
2022-10-11T13:11:17.031Z,14
2022-10-11T13:39:56.477Z,21
2022-10-11T14:08:20.984Z,14
2022-10-11T14:36:55.710Z,15
2022-10-11T15:05:33.623Z,21
2022-10-11T15:33:44.215Z,15
2022-10-11T16:02:14.684Z,21
2022-10-11T16:30:42.992Z,15
2022-10-11T16:59:23.164Z,21
2022-10-11T17:28:09.468Z,21
2022-10-11T17:56:53.532Z,23
2022-10-11T18:25:33.269Z,25
2022-10-11T18:54:18.276Z,22
2022-10-11T19:22:39.922Z,21
2022-10-11T19:51:27.541Z,14
2022-10-11T20:19:58.680Z,11
2022-10-11T20:51:12.138Z,10
